Time;durP1;ratioP1;P1;durP2;ratioP2;P2;SDS_P1;SDS_P2;PMS_P1;PMS_P2;Temp;Humidity;BMP_temperature;BMP_pressure;BME280_temperature;BME280_humidity;BME280_pressure;Samples;Min_cycle;Max_cycle;Signal;HPM_P1;HPM_P2
2021/12/29 05:51:43;;;;;;;30.02;14.75;;;;;;;-6.08;100.00;99700.20;1719956;82;21077;-43
2021/12/29 05:54:10;;;;;;;35.10;16.07;;;;;;;-6.08;100.00;99698.93;1736089;82;20991;-42
2021/12/29 05:56:37;;;;;;;38.58;16.50;;;;;;;-6.08;100.00;99699.80;1728836;82;21046;-36
2021/12/29 05:59:04;;;;;;;42.53;17.12;;;;;;;-6.07;100.00;99695.59;1735377;82;21017;-43
2021/12/29 06:01:31;;;;;;;35.60;15.30;;;;;;;-6.01;100.00;99694.25;1734846;82;21564;-43
2021/12/29 06:03:58;;;;;;;34.75;17.23;;;;;;;-5.99;100.00;99700.30;1734702;82;21022;-35
2021/12/29 06:06:24;;;;;;;40.43;17.55;;;;;;;-5.97;100.00;99702.56;1731753;82;21061;-35
2021/12/29 06:08:51;;;;;;;37.93;17.07;;;;;;;-5.94;100.00;99704.39;1729214;82;21091;-35
2021/12/29 06:11:18;;;;;;;44.83;19.25;;;;;;;-5.90;100.00;99704.61;1735428;81;21628;-36
2021/12/29 06:13:45;;;;;;;34.23;17.27;;;;;;;-5.84;100.00;99696.83;1733531;80;21041;-43
2021/12/29 06:16:12;;;;;;;52.60;17.92;;;;;;;-5.80;100.00;99714.89;1728644;81;21514;-43
2021/12/29 06:18:40;;;;;;;39.53;17.95;;;;;;;-5.77;100.00;99709.98;1726117;81;21535;-43
2021/12/29 06:21:07;;;;;;;36.25;17.00;;;;;;;-5.76;100.00;99715.95;1732644;81;21707;-43
2021/12/29 06:23:35;;;;;;;37.73;16.50;;;;;;;-5.76;99.83;99715.95;1730914;81;21551;-37
2021/12/29 06:26:02;;;;;;;42.93;18.62;;;;;;;-5.74;99.79;99713.08;1725924;81;21071;-35
2021/12/29 06:28:28;;;;;;;43.02;20.43;;;;;;;-5.75;99.67;99712.61;1725582;82;21032;-35
2021/12/29 06:30:55;;;;;;;40.00;18.17;;;;;;;-5.75;99.72;99721.53;1724621;80;21142;-43
2021/12/29 06:33:22;;;;;;;37.73;17.65;;;;;;;-5.72;99.78;99723.86;1728576;82;20977;-43
2021/12/29 06:35:53;;;;;;;45.38;18.45;;;;;;;-5.69;99.70;99729.11;1729138;81;21093;-43
2021/12/29 06:38:20;;;;;;;42.90;19.80;;;;;;;-5.65;99.77;99729.77;1722785;82;20970;-35
2021/12/29 06:40:48;;;;;;;42.30;19.27;;;;;;;-5.60;99.68;99724.05;1723411;81;21073;-36
2021/12/29 06:43:17;;;;;;;44.48;21.02;;;;;;;-5.57;99.57;99725.08;1714138;82;21021;-35
2021/12/29 06:45:44;;;;;;;48.05;20.77;;;;;;;-5.54;99.44;99728.21;1703077;82;21538;-35
2021/12/29 06:48:10;;;;;;;46.33;19.90;;;;;;;-5.53;99.28;99727.02;1725201;82;20998;-35
2021/12/29 06:50:37;;;;;;;41.95;17.70;;;;;;;-5.50;99.12;99732.30;1728061;81;21085;-35
2021/12/29 06:53:04;;;;;;;43.02;18.07;;;;;;;-5.48;98.87;99734.92;1712262;82;20988;-35
2021/12/29 06:55:43;;;;;;;52.50;20.05;;;;;;;-5.48;98.59;99734.52;1707702;82;21053;-44
2021/12/29 06:58:11;;;;;;;37.65;17.70;;;;;;;-5.48;98.40;99737.07;1683061;82;21613;-44
2021/12/29 07:00:37;;;;;;;46.05;20.60;;;;;;;-5.46;98.20;99739.69;1707968;82;21085;-37
2021/12/29 07:03:04;;;;;;;46.90;19.17;;;;;;;-5.45;98.17;99736.34;1706008;82;20967;-36
2021/12/29 07:05:31;;;;;;;43.55;19.05;;;;;;;-5.43;98.01;99742.42;1703715;82;21030;-45
2021/12/29 07:07:58;;;;;;;42.17;17.73;;;;;;;-5.43;97.79;99736.92;1706219;82;21522;-36
2021/12/29 07:10:26;;;;;;;44.15;19.80;;;;;;;-5.40;97.82;99745.12;1704371;82;21328;-37
2021/12/29 07:12:54;;;;;;;38.73;18.32;;;;;;;-5.36;97.65;99745.78;1707850;82;21001;-47
2021/12/29 07:15:21;;;;;;;44.60;19.23;;;;;;;-5.32;97.43;99747.70;1701481;82;21030;-36
2021/12/29 07:17:49;;;;;;;37.23;17.70;;;;;;;-5.29;97.29;99744.03;1702169;82;21485;-43
2021/12/29 07:20:16;;;;;;;49.10;18.92;;;;;;;-5.25;97.11;99751.46;1700955;82;20995;-44
2021/12/29 07:22:43;;;;;;;40.88;18.23;;;;;;;-5.23;97.03;99759.66;1704120;82;22326;-44
2021/12/29 07:25:10;;;;;;;37.78;17.87;;;;;;;-5.17;96.88;99764.22;1706869;82;21561;-45
2021/12/29 07:27:37;;;;;;;34.43;16.15;;;;;;;-5.12;96.66;99761.52;1704499;82;21696;-37
2021/12/29 07:30:06;;;;;;;35.50;17.60;;;;;;;-5.04;96.59;99759.00;1705576;82;20946;-36
2021/12/29 07:32:33;;;;;;;36.68;17.67;;;;;;;-4.96;96.23;99765.77;1697731;82;21046;-36
2021/12/29 07:35:00;;;;;;;34.05;15.65;;;;;;;-4.90;95.79;99765.69;1700176;82;21025;-42
2021/12/29 07:37:26;;;;;;;38.25;16.82;;;;;;;-4.84;95.55;99765.14;1699286;82;21041;-44
2021/12/29 07:39:55;;;;;;;34.38;16.48;;;;;;;-4.79;94.97;99765.39;1703572;82;21539;-37
2021/12/29 07:42:22;;;;;;;36.85;16.80;;;;;;;-4.78;94.50;99767.14;1707094;82;21628;-36
2021/12/29 07:44:51;;;;;;;34.30;16.07;;;;;;;-4.78;94.06;99774.80;1703472;82;21023;-36
2021/12/29 07:47:19;;;;;;;40.55;18.73;;;;;;;-4.78;94.09;99769.28;1704977;82;21025;-51
2021/12/29 07:49:46;;;;;;;35.05;18.62;;;;;;;-4.74;94.12;99767.78;1701687;82;21011;-36
2021/12/29 07:52:21;;;;;;;38.70;18.40;;;;;;;-4.71;93.92;99764.97;1702292;82;21133;-35
2021/12/29 07:54:47;;;;;;;42.35;18.80;;;;;;;-4.64;93.76;99772.55;1703348;82;21064;-35
2021/12/29 07:57:14;;;;;;;39.95;19.55;;;;;;;-4.58;93.59;99772.49;1706643;82;21019;-42
2021/12/29 07:59:44;;;;;;;39.98;16.95;;;;;;;-4.53;93.25;99768.00;1703479;82;21020;-36
2021/12/29 08:02:16;;;;;;;38.75;17.12;;;;;;;-4.47;93.06;99763.20;1703117;82;21066;-43
2021/12/29 08:04:44;;;;;;;40.17;16.70;;;;;;;-4.44;92.55;99762.97;1703817;82;21050;-44
2021/12/29 08:07:10;;;;;;;36.65;17.70;;;;;;;-4.43;91.87;99767.27;1703676;82;21076;-43
2021/12/29 08:09:37;;;;;;;41.20;18.55;;;;;;;-4.44;91.72;99757.86;1706128;82;21360;-36
2021/12/29 08:12:07;;;;;;;36.20;17.57;;;;;;;-4.40;91.72;99759.78;1705935;82;21026;-39
2021/12/29 08:14:43;;;;;;;37.42;18.80;;;;;;;-4.37;91.33;99767.98;1708805;82;21076;-36
2021/12/29 08:17:12;;;;;;;39.48;18.12;;;;;;;-4.34;91.30;99769.43;1669605;84;21397;-43
2021/12/29 08:19:39;;;;;;;37.40;17.90;;;;;;;-4.24;91.22;99770.75;1706609;82;21624;-35
2021/12/29 08:22:08;;;;;;;35.08;18.00;;;;;;;-4.18;90.46;99762.11;1704780;82;21483;-35
2021/12/29 08:24:36;;;;;;;48.20;24.77;;;;;;;-4.15;89.88;99772.50;1683374;82;21423;-37
2021/12/29 08:27:04;;;;;;;40.48;18.75;;;;;;;-4.13;89.25;99769.20;1709590;82;21090;-43
2021/12/29 08:29:31;;;;;;;40.20;20.32;;;;;;;-4.08;89.21;99770.31;1714482;82;21017;-43
2021/12/29 08:31:58;;;;;;;35.92;19.15;;;;;;;-4.03;88.88;99770.55;1714427;82;21077;-44
2021/12/29 08:34:25;;;;;;;43.17;21.37;;;;;;;-4.00;88.45;99774.55;1708570;82;21356;-44
2021/12/29 08:36:52;;;;;;;39.63;17.82;;;;;;;-3.97;88.11;99776.36;1706028;82;21024;-37
2021/12/29 08:39:19;;;;;;;43.55;19.30;;;;;;;-3.95;87.50;99766.68;1705956;82;21029;-37
2021/12/29 08:41:47;;;;;;;57.67;29.82;;;;;;;-3.98;87.38;99763.12;1705753;82;21601;-38
2021/12/29 08:44:14;;;;;;;51.85;26.60;;;;;;;-3.95;87.58;99769.23;1706135;82;21037;-35
2021/12/29 08:46:40;;;;;;;33.53;16.48;;;;;;;-3.88;87.76;99766.61;1706293;82;21693;-43
2021/12/29 08:49:07;;;;;;;40.25;18.98;;;;;;;-3.84;87.22;99760.41;1705837;81;21045;-35
2021/12/29 08:51:34;;;;;;;35.85;18.07;;;;;;;-3.87;86.96;99764.12;1706603;82;21046;-43
2021/12/29 08:54:02;;;;;;;34.92;18.00;;;;;;;-3.92;86.63;99763.02;1736324;81;21073;-43
2021/12/29 08:56:30;;;;;;;31.50;16.62;;;;;;;-3.94;86.48;99763.35;1736078;81;21042;-43
2021/12/29 08:58:57;;;;;;;36.23;20.00;;;;;;;-3.95;86.72;99765.80;1731419;80;21046;-43
2021/12/29 09:01:24;;;;;;;33.70;16.85;;;;;;;-3.92;86.61;99770.68;1739551;81;21599;-36
2021/12/29 09:03:51;;;;;;;37.20;17.98;;;;;;;-3.88;86.03;99773.00;1738784;81;21490;-36
2021/12/29 09:06:20;;;;;;;29.20;14.55;;;;;;;-3.85;86.43;99765.05;1738362;81;21443;-44
2021/12/29 09:08:48;;;;;;;38.23;18.70;;;;;;;-3.76;86.18;99765.92;1736382;81;21032;-43
2021/12/29 09:11:15;;;;;;;42.10;20.35;;;;;;;-3.69;85.89;99769.24;1736807;80;21426;-43
2021/12/29 09:13:41;;;;;;;37.95;19.37;;;;;;;-3.65;85.33;99779.19;1729089;80;21049;-36
2021/12/29 09:16:08;;;;;;;33.23;16.87;;;;;;;-3.62;85.20;99772.96;1735292;81;21049;-37
2021/12/29 09:18:36;;;;;;;38.70;19.85;;;;;;;-3.58;85.44;99772.31;1742603;80;21548;-37
2021/12/29 09:21:07;;;;;;;30.65;15.43;;;;;;;-3.54;85.07;99769.98;1737858;80;21575;-44
2021/12/29 09:23:35;;;;;;;32.63;17.40;;;;;;;-3.55;84.42;99771.16;1731368;81;20993;-44
2021/12/29 09:26:01;;;;;;;31.33;16.23;;;;;;;-3.57;84.38;99774.06;1733481;81;20973;-44
2021/12/29 09:28:28;;;;;;;37.05;17.20;;;;;;;-3.59;84.32;99765.05;1734846;81;21436;-39
2021/12/29 09:30:56;;;;;;;38.75;17.82;;;;;;;-3.52;84.69;99767.49;1732550;81;21017;-36
2021/12/29 09:33:23;;;;;;;36.73;16.25;;;;;;;-3.45;84.20;99772.48;1732371;82;21517;-43
2021/12/29 09:35:52;;;;;;;32.93;14.93;;;;;;;-3.49;83.91;99775.29;1731659;82;21041;-43
2021/12/29 09:38:19;;;;;;;38.95;17.42;;;;;;;-3.52;83.83;99779.87;1729832;82;21109;-38
2021/12/29 09:40:48;;;;;;;36.15;15.78;;;;;;;-3.50;83.49;99778.66;1733499;82;21611;-44
2021/12/29 09:43:16;;;;;;;33.40;16.30;;;;;;;-3.56;83.35;99770.70;1738546;80;21088;-45
2021/12/29 09:45:47;;;;;;;38.23;17.95;;;;;;;-3.59;83.62;99770.56;1736636;81;21038;-44
2021/12/29 09:48:12;;;;;;;33.00;17.55;;;;;;;-3.60;83.57;99775.18;1731197;82;21387;-44
2021/12/29 09:50:39;;;;;;;36.90;18.15;;;;;;;-3.60;83.73;99770.94;1725497;82;21057;-36
2021/12/29 09:53:07;;;;;;;31.52;15.85;;;;;;;-3.57;84.00;99777.49;1707212;81;21062;-44
2021/12/29 09:55:35;;;;;;;36.30;18.12;;;;;;;-3.50;84.04;99771.86;1678876;84;21168;-44
2021/12/29 09:58:03;;;;;;;41.20;17.02;;;;;;;-3.39;83.86;99777.89;1686956;83;21014;-43
2021/12/29 10:00:42;;;;;;;39.67;17.45;;;;;;;-3.30;83.72;99779.61;1689286;84;20946;-44
2021/12/29 10:03:14;;;;;;;34.70;16.87;;;;;;;-3.25;83.38;99781.59;1685187;83;21023;-44
2021/12/29 10:05:43;;;;;;;44.65;18.57;;;;;;;-3.22;82.97;99784.67;1682542;84;21605;-43
2021/12/29 10:08:15;;;;;;;39.70;18.48;;;;;;;-3.23;82.35;99776.12;1678277;83;20996;-38
2021/12/29 10:10:47;;;;;;;36.93;17.70;;;;;;;-3.30;82.37;99786.89;1684147;83;21093;-44
2021/12/29 10:13:14;;;;;;;28.85;12.55;;;;;;;-3.30;82.48;99783.05;1685032;83;21394;-43
2021/12/29 10:15:46;;;;;;;39.25;16.48;;;;;;;-3.30;81.83;99785.61;1683294;83;22082;-37
2021/12/29 10:18:18;;;;;;;39.88;17.12;;;;;;;-3.33;81.58;99779.45;1683150;83;21505;-43
2021/12/29 10:20:58;;;;;;;36.00;16.75;;;;;;;-3.37;81.79;99773.30;1685536;83;21495;-37
2021/12/29 10:23:38;;;;;;;41.48;18.05;;;;;;;-3.39;82.09;99780.05;1686493;83;21103;-45
2021/12/29 10:26:09;;;;;;;34.88;16.73;;;;;;;-3.36;82.19;99773.81;1683288;83;21089;-44
2021/12/29 10:28:39;;;;;;;44.15;17.52;;;;;;;-3.27;81.91;99765.67;1680644;83;21100;-44
2021/12/29 10:31:15;;;;;;;40.90;17.27;;;;;;;-3.29;81.32;99769.44;1684111;83;21077;-36
2021/12/29 10:33:43;;;;;;;46.85;19.32;;;;;;;-3.39;81.41;99767.25;1684244;83;21064;-45
2021/12/29 10:36:34;;;;;;;39.55;18.52;;;;;;;-3.45;82.01;99772.08;1685066;83;21093;-36
2021/12/29 10:39:17;;;;;;;50.65;18.35;;;;;;;-3.46;82.12;99770.34;1688802;82;21029;-43
2021/12/29 10:41:58;;;;;;;43.63;19.32;;;;;;;-3.49;82.08;99768.89;1676481;83;21049;-45
2021/12/29 10:44:40;;;;;;;38.42;17.45;;;;;;;-3.53;81.95;99769.17;1681927;84;21584;-44
2021/12/29 10:47:24;;;;;;;41.35;17.00;;;;;;;-3.47;82.14;99766.44;1680696;83;21701;-43
2021/12/29 10:50:11;;;;;;;36.28;16.23;;;;;;;-3.45;81.86;99769.93;1678045;83;21032;-37
2021/12/29 10:52:44;;;;;;;41.18;18.60;;;;;;;-3.48;81.78;99770.64;1694953;82;21068;-43
2021/12/29 10:55:18;;;;;;;40.05;18.40;;;;;;;-3.46;81.96;99772.02;1731019;82;21017;-44
2021/12/29 10:57:45;;;;;;;47.13;19.27;;;;;;;-3.45;81.65;99775.92;1703011;82;21375;-39
2021/12/29 11:04:01;;;;;;;42.50;16.80;;;;;;;-3.53;81.41;99781.09;1807021;78;27880;-43
2021/12/29 11:06:28;;;;;;;40.90;17.23;;;;;;;-3.61;81.67;99784.53;1770220;79;21069;-38
2021/12/29 11:08:58;;;;;;;40.15;16.10;;;;;;;-3.61;81.91;99778.55;1759255;79;21518;-44
2021/12/29 11:11:42;;;;;;;42.23;16.95;;;;;;;-3.64;82.03;99778.42;1760951;79;21927;-44
2021/12/29 11:14:25;;;;;;;36.88;14.85;;;;;;;-3.63;82.03;99784.00;1694245;78;21685;-36
2021/12/29 11:17:15;;;;;;;35.63;15.03;;;;;;;-3.71;82.04;99777.25;1759685;79;21163;-43
2021/12/29 11:19:58;;;;;;;41.85;17.75;;;;;;;-3.75;82.34;99777.89;1762388;80;20997;-43
2021/12/29 11:22:28;;;;;;;50.78;18.02;;;;;;;-3.75;82.62;99782.60;1756839;79;21609;-44
2021/12/29 11:24:59;;;;;;;54.45;20.10;;;;;;;-3.71;82.79;99786.20;1768984;79;21525;-44
2021/12/29 11:27:29;;;;;;;46.37;18.20;;;;;;;-3.68;82.88;99791.44;1758885;79;21420;-37
2021/12/29 11:30:08;;;;;;;49.48;18.30;;;;;;;-3.64;82.67;99793.77;1761355;79;21028;-37
2021/12/29 11:32:45;;;;;;;44.77;19.52;;;;;;;-3.62;82.34;99794.30;1761001;79;21049;-37
2021/12/29 11:35:18;;;;;;;42.13;17.95;;;;;;;-3.61;82.27;99791.33;1763444;79;21021;-36
2021/12/29 11:37:54;;;;;;;46.15;18.98;;;;;;;-3.63;82.03;99798.94;1759815;79;21032;-44
2021/12/29 11:40:30;;;;;;;45.73;17.90;;;;;;;-3.67;81.94;99807.66;1757226;79;20970;-46
2021/12/29 11:42:57;;;;;;;50.38;21.05;;;;;;;-3.71;82.15;99804.09;1758158;79;21025;-37
2021/12/29 11:45:24;;;;;;;42.90;18.77;;;;;;;-3.70;82.53;99802.41;1728232;81;21390;-37
2021/12/29 11:47:51;;;;;;;43.90;17.67;;;;;;;-3.62;82.62;99794.70;1714902;81;21089;-37
2021/12/29 11:50:23;;;;;;;47.05;20.08;;;;;;;-3.61;82.42;99796.05;1714478;81;20995;-37
2021/12/29 11:53:09;;;;;;;44.35;19.02;;;;;;;-3.61;82.27;99793.89;1708740;81;21034;-37
2021/12/29 11:55:50;;;;;;;53.10;18.48;;;;;;;-3.57;82.38;99795.80;1710956;81;21078;-36
2021/12/29 11:58:21;;;;;;;41.28;17.60;;;;;;;-3.54;82.22;99800.67;1692137;83;21066;-37
2021/12/29 12:01:01;;;;;;;43.33;17.62;;;;;;;-3.54;82.20;99803.23;1708296;81;21050;-44
2021/12/29 12:03:53;;;;;;;42.15;16.42;;;;;;;-3.51;81.95;99803.77;1700868;83;21128;-45
2021/12/29 12:06:40;;;;;;;42.13;17.30;;;;;;;-3.56;81.81;99802.26;1739108;79;21045;-43
2021/12/29 12:09:18;;;;;;;44.20;17.50;;;;;;;-3.58;81.95;99803.87;1746053;81;21450;-37
2021/12/29 12:11:55;;;;;;;41.88;17.57;;;;;;;-3.65;81.99;99815.90;1761142;79;21035;-35
2021/12/29 12:14:36;;;;;;;47.00;18.05;;;;;;;-3.69;82.24;99822.94;1758962;81;21811;-37
2021/12/29 12:17:12;;;;;;;49.08;19.77;;;;;;;-3.74;82.55;99823.11;1728721;81;21643;-36
2021/12/29 12:19:39;;;;;;;43.38;17.80;;;;;;;-3.77;82.73;99825.13;1790040;79;20967;-43
2021/12/29 12:22:10;;;;;;;45.45;21.27;;;;;;;-3.76;82.91;99833.67;1745342;79;21112;-44
2021/12/29 12:24:40;;;;;;;59.83;23.00;;;;;;;-3.77;82.95;99828.96;1767072;81;20970;-44
2021/12/29 12:27:11;;;;;;;60.00;21.80;;;;;;;-3.79;82.72;99835.66;1763218;81;21041;-43
2021/12/29 12:29:41;;;;;;;51.63;20.50;;;;;;;-3.77;83.09;99843.02;1735805;81;20990;-43
2021/12/29 12:32:21;;;;;;;45.60;20.10;;;;;;;-3.71;83.08;99843.73;1750711;81;21514;-39
2021/12/29 12:34:59;;;;;;;50.30;21.52;;;;;;;-3.69;82.85;99840.83;1751047;79;20989;-36
2021/12/29 12:37:38;;;;;;;46.65;20.72;;;;;;;-3.67;82.81;99837.06;1763118;81;21053;-44
2021/12/29 12:40:10;;;;;;;44.95;19.40;;;;;;;-3.66;82.74;99843.93;1755796;81;20938;-44
2021/12/29 12:45:21;;;;;;;50.98;20.62;;;;;;;-3.61;82.74;99849.75;1805319;79;27917;-42
2021/12/29 12:47:48;;;;;;;47.25;19.85;;;;;;;-3.63;82.72;99850.48;1753696;81;21009;-42
2021/12/29 12:50:27;;;;;;;45.92;18.02;;;;;;;-3.62;82.42;99853.52;1752945;80;20995;-36
2021/12/29 12:52:55;;;;;;;43.63;16.82;;;;;;;-3.64;82.67;99858.56;1758223;81;21007;-36
2021/12/29 12:55:22;;;;;;;43.52;19.30;;;;;;;-3.62;82.59;99860.78;1756273;81;21011;-36
2021/12/29 12:57:50;;;;;;;39.88;18.95;;;;;;;-3.61;82.30;99866.38;1741889;81;21021;-37
2021/12/29 13:00:24;;;;;;;43.35;18.40;;;;;;;-3.64;82.09;99862.40;1759373;80;21010;-44
2021/12/29 13:02:55;;;;;;;40.03;18.55;;;;;;;-3.66;82.08;99874.21;1753977;81;21004;-36
2021/12/29 13:05:32;;;;;;;42.55;20.15;;;;;;;-3.71;82.24;99877.34;1719944;81;21014;-43
2021/12/29 13:08:11;;;;;;;44.90;18.00;;;;;;;-3.77;82.41;99867.31;1725381;81;21031;-35
2021/12/29 13:11:00;;;;;;;34.33;14.23;;;;;;;-3.79;82.52;99867.61;1757297;81;21545;-36
2021/12/29 13:13:30;;;;;;;40.55;16.52;;;;;;;-3.79;82.79;99871.85;1756869;81;21515;-44
2021/12/29 13:16:11;;;;;;;32.73;15.30;;;;;;;-3.80;82.52;99869.70;1759186;80;21608;-44
2021/12/29 13:18:38;;;;;;;34.13;15.43;;;;;;;-3.87;82.43;99876.59;1749270;81;21489;-37
2021/12/29 13:21:10;;;;;;;43.28;18.98;;;;;;;-3.93;82.69;99873.73;1747706;81;21130;-36
2021/12/29 13:23:37;;;;;;;;;;;;;;;-3.96;82.85;99872.28;1740012;81;21030;-43
2021/12/29 13:26:04;;;;;;;34.08;17.62;;;;;;;-3.97;83.05;99886.27;1747415;80;20114;-36
2021/12/29 13:28:31;;;;;;;32.53;15.90;;;;;;;-4.01;83.24;99882.66;1760129;81;21905;-36
2021/12/29 13:31:06;;;;;;;36.10;15.28;;;;;;;-4.01;83.45;99881.38;1743132;81;21054;-44
2021/12/29 13:33:35;;;;;;;30.45;14.55;;;;;;;-3.98;83.47;99880.68;1742223;81;20997;-44
2021/12/29 13:36:04;;;;;;;35.13;17.65;;;;;;;-4.00;83.35;99880.61;1737142;81;21027;-44
2021/12/29 13:38:32;;;;;;;71.10;32.25;;;;;;;-4.02;83.41;99882.19;1745786;81;21066;-36
2021/12/29 13:41:03;;;;;;;49.55;24.95;;;;;;;-4.05;83.49;99885.88;1752969;80;21576;-43
2021/12/29 13:43:36;;;;;;;51.58;25.12;;;;;;;-4.08;83.61;99884.03;1749825;80;21056;-44
2021/12/29 13:46:24;;;;;;;40.58;17.90;;;;;;;-4.09;83.90;99884.83;1752361;81;21889;-44
2021/12/29 13:48:55;;;;;;;38.33;17.27;;;;;;;-4.05;84.13;99887.16;1742865;82;21033;-43
2021/12/29 13:51:34;;;;;;;89.25;37.58;;;;;;;-4.05;83.86;99889.72;1752821;81;21601;-35
2021/12/29 13:54:09;;;;;;;126.12;50.75;;;;;;;-4.10;83.83;99888.59;1753972;80;21115;-42
2021/12/29 13:56:40;;;;;;;90.50;41.23;;;;;;;-4.14;84.04;99887.95;1752707;81;21038;-43
2021/12/29 13:59:11;;;;;;;48.98;24.77;;;;;;;-4.18;84.26;99891.14;1753841;82;21517;-36
2021/12/29 14:01:42;;;;;;;35.13;17.23;;;;;;;-4.19;84.47;99892.81;1754656;81;21105;-43
2021/12/29 14:04:14;;;;;;;37.95;17.48;;;;;;;-4.17;84.76;99899.31;1748421;82;21048;-40
2021/12/29 14:06:42;;;;;;;36.33;15.60;;;;;;;-4.17;84.65;99902.73;1749217;81;21594;-36
2021/12/29 14:09:10;;;;;;;36.25;16.80;;;;;;;-4.17;84.76;99905.30;1757307;81;21014;-43
2021/12/29 14:11:39;;;;;;;32.23;14.53;;;;;;;-4.19;84.74;99899.61;1757314;81;21050;-44
2021/12/29 14:14:11;;;;;;;28.50;13.30;;;;;;;-4.21;84.85;99900.81;1757702;81;21042;-35
2021/12/29 14:16:46;;;;;;;36.20;16.17;;;;;;;-4.25;84.94;99910.78;1745933;82;21086;-43
2021/12/29 14:19:15;;;;;;;37.83;16.07;;;;;;;-4.29;85.04;99912.28;1742698;82;21089;-36
2021/12/29 14:21:41;;;;;;;30.62;14.80;;;;;;;-4.33;85.20;99918.05;1748816;81;21057;-43
2021/12/29 14:24:11;;;;;;;30.43;15.20;;;;;;;-4.37;85.44;99924.66;1750962;82;21690;-37
2021/12/29 14:26:42;;;;;;;48.55;25.15;;;;;;;-4.39;85.64;99926.67;1750192;81;21053;-37
2021/12/29 14:29:09;;;;;;;40.55;20.05;;;;;;;-4.41;85.85;99930.39;1746229;82;21010;-35
2021/12/29 14:31:40;;;;;;;43.73;19.20;;;;;;;-4.41;86.05;99934.63;1754882;81;21537;-36
2021/12/29 14:34:09;;;;;;;40.80;19.42;;;;;;;-4.39;86.13;99941.59;1757495;81;21513;-36
2021/12/29 14:36:44;;;;;;;33.98;18.02;;;;;;;-4.37;86.24;99948.05;1757663;81;21576;-36
2021/12/29 14:39:18;;;;;;;35.28;17.23;;;;;;;-4.34;86.33;99949.51;1758263;81;21089;-44
2021/12/29 14:41:45;;;;;;;60.70;27.10;;;;;;;-4.31;86.28;99939.44;1757082;81;21046;-37
2021/12/29 14:44:15;;;;;;;77.78;34.20;;;;;;;-4.29;86.30;99948.96;1758152;81;21073;-37
2021/12/29 14:46:51;;;;;;;91.78;40.33;;;;;;;-4.24;86.35;99947.02;1758005;81;21042;-37
2021/12/29 14:49:30;;;;;;;81.57;34.05;;;;;;;-4.22;86.26;99945.05;1758008;81;21062;-37
2021/12/29 14:51:58;;;;;;;76.17;31.50;;;;;;;-4.17;86.08;99946.17;1749326;80;21586;-36
2021/12/29 14:54:39;;;;;;;165.73;64.95;;;;;;;-4.15;85.93;99946.25;1748067;82;21114;-36
2021/12/29 14:57:11;;;;;;;55.33;25.17;;;;;;;-4.13;85.91;99949.75;1750544;81;21083;-38
2021/12/29 14:59:40;;;;;;;50.95;23.12;;;;;;;-4.10;85.76;99948.25;1747209;81;21065;-42
2021/12/29 15:02:15;;;;;;;38.13;19.35;;;;;;;-4.09;85.64;99949.13;1736536;81;21048;-43
2021/12/29 15:04:43;;;;;;;28.35;15.25;;;;;;;-4.07;85.73;99956.45;1734487;81;21546;-36
2021/12/29 15:07:20;;;;;;;30.12;15.72;;;;;;;-3.99;85.85;99961.99;1758040;80;21743;-36
2021/12/29 15:10:09;;;;;;;26.12;13.60;;;;;;;-3.91;85.74;99958.15;1758349;81;21592;-43
2021/12/29 15:12:38;;;;;;;30.75;15.53;;;;;;;-3.86;85.43;99965.66;1747325;81;21142;-43
2021/12/29 15:15:27;;;;;;;32.42;16.73;;;;;;;-3.83;85.20;99962.84;1756873;81;21796;-36
2021/12/29 15:18:08;;;;;;;29.27;14.30;;;;;;;-3.79;85.17;99962.20;1749694;81;21585;-36
2021/12/29 15:20:40;;;;;;;25.12;12.53;;;;;;;-3.73;84.95;99971.00;1742931;81;21055;-36
2021/12/29 15:23:09;;;;;;;33.92;15.93;;;;;;;-3.72;84.48;99962.52;1756050;81;21573;-43
2021/12/29 15:25:35;;;;;;;30.48;16.10;;;;;;;-3.76;84.15;99961.51;1749123;82;21032;-36
2021/12/29 15:28:05;;;;;;;32.55;17.85;;;;;;;-3.81;84.03;99966.78;1740750;82;20999;-35
2021/12/29 15:30:36;;;;;;;32.03;17.10;;;;;;;-3.83;84.04;99971.78;1745136;82;21062;-36
2021/12/29 15:33:04;;;;;;;32.70;16.73;;;;;;;-3.86;84.07;99974.61;1742314;82;21562;-36
2021/12/29 15:35:30;;;;;;;35.80;16.52;;;;;;;-3.84;84.44;99975.15;1754882;81;21037;-36
2021/12/29 15:37:57;;;;;;;28.85;15.05;;;;;;;-3.77;84.56;99975.97;1755326;82;21094;-43
2021/12/29 15:40:25;;;;;;;31.60;14.75;;;;;;;-3.68;84.35;99981.06;1755063;81;21085;-36
2021/12/29 15:42:52;;;;;;;25.70;13.55;;;;;;;-3.65;84.32;99976.09;1755038;82;21561;-43
2021/12/29 15:45:19;;;;;;;24.50;13.13;;;;;;;-3.59;83.94;99985.39;1750950;81;21045;-36
2021/12/29 15:47:46;;;;;;;28.27;14.60;;;;;;;-3.61;83.69;99980.17;1740345;82;20973;-43
2021/12/29 15:50:15;;;;;;;33.25;16.37;;;;;;;-3.59;83.72;99983.70;1737798;82;21114;-36
2021/12/29 15:52:43;;;;;;;33.95;18.20;;;;;;;-3.53;83.74;99980.18;1744607;82;21462;-36
2021/12/29 15:55:10;;;;;;;34.80;18.00;;;;;;;-3.53;83.08;99978.03;1736492;82;21021;-36
2021/12/29 15:57:37;;;;;;;30.52;15.20;;;;;;;-3.58;82.81;99976.91;1744645;81;21021;-36
2021/12/29 16:00:11;;;;;;;25.27;14.35;;;;;;;-3.62;82.77;99976.27;1748563;82;21017;-37
2021/12/29 16:02:40;;;;;;;31.68;16.12;;;;;;;-3.65;82.72;99985.95;1751839;81;21113;-36
2021/12/29 16:05:09;;;;;;;28.40;14.93;;;;;;;-3.70;82.76;99983.55;1752380;82;21021;-43
2021/12/29 16:07:36;;;;;;;28.40;16.30;;;;;;;-3.73;82.87;99977.39;1752528;80;21077;-37
2021/12/29 16:10:06;;;;;;;26.62;15.18;;;;;;;-3.77;82.98;99978.53;1748975;82;21048;-42
2021/12/29 16:12:33;;;;;;;24.55;13.18;;;;;;;-3.81;83.02;99975.73;1754449;81;21095;-43
2021/12/29 16:15:00;;;;;;;25.40;12.40;;;;;;;-3.84;83.05;99978.98;1750212;82;21107;-42
2021/12/29 16:17:28;;;;;;;26.75;13.98;;;;;;;-3.87;83.05;99982.67;1752225;80;21069;-35
2021/12/29 16:19:55;;;;;;;23.60;13.40;;;;;;;-3.91;83.17;99976.91;1752222;82;21038;-42
2021/12/29 16:22:22;;;;;;;19.37;12.53;;;;;;;-3.92;83.25;99987.07;1752564;81;21534;-42
2021/12/29 16:24:49;;;;;;;22.07;12.68;;;;;;;-3.94;83.39;99988.64;1752331;82;21667;-43
2021/12/29 16:27:22;;;;;;;19.70;11.75;;;;;;;-3.94;83.58;100001.05;1723662;82;21629;-43
2021/12/29 16:29:45;;;;;;;19.48;12.33;;;;;;;-3.92;83.65;100001.12;1752515;82;21037;-35
2021/12/29 16:32:14;;;;;;;30.65;12.98;;;;;;;-3.92;83.72;99992.19;1752344;80;21089;-35
2021/12/29 16:34:47;;;;;;;18.90;11.25;;;;;;;-3.91;83.73;99992.66;1749432;82;21567;-37
2021/12/29 16:37:11;;;;;;;19.32;12.40;;;;;;;-3.88;83.75;99988.59;1752225;81;21035;-36
2021/12/29 16:39:37;;;;;;;18.40;11.97;;;;;;;-3.88;83.58;99984.77;1752406;82;21093;-43
2021/12/29 16:42:05;;;;;;;20.92;12.78;;;;;;;-3.88;83.62;99991.55;1726761;82;21068;-43
2021/12/29 16:44:32;;;;;;;20.75;11.50;;;;;;;-3.86;83.77;99992.50;1734715;82;21062;-36
2021/12/29 16:46:59;;;;;;;21.25;12.55;;;;;;;-3.85;83.66;99992.57;1747121;81;21130;-36
2021/12/29 16:49:26;;;;;;;22.00;12.05;;;;;;;-3.87;83.59;99989.06;1747194;82;21058;-37
2021/12/29 16:51:53;;;;;;;19.40;11.55;;;;;;;-3.86;83.55;99992.09;1746967;81;21083;-36
2021/12/29 16:54:20;;;;;;;23.83;11.75;;;;;;;-3.88;83.47;99992.43;1747076;82;21045;-44
